sensor_id;sensor_type;location;lat;lon;timestamp;temperature;humidity
31207;DHT22;17834;52.992;8.856;2024-01-30T00:00:39;2.80;99.90
31207;DHT22;17834;52.992;8.856;2024-01-30T00:03:04;2.80;99.90
31207;DHT22;17834;52.992;8.856;2024-01-30T00:05:30;2.80;99.90
31207;DHT22;17834;52.992;8.856;2024-01-30T00:07:55;2.80;99.90
31207;DHT22;17834;52.992;8.856;2024-01-30T00:10:21;2.70;99.90
31207;DHT22;17834;52.992;8.856;2024-01-30T00:12:47;2.70;99.90
31207;DHT22;17834;52.992;8.856;2024-01-30T00:15:13;2.70;99.90
31207;DHT22;17834;52.992;8.856;2024-01-30T00:17:38;2.70;99.90
31207;DHT22;17834;52.992;8.856;2024-01-30T00:20:04;2.70;99.90
31207;DHT22;17834;52.992;8.856;2024-01-30T00:22:34;2.60;99.90
31207;DHT22;17834;52.992;8.856;2024-01-30T00:25:00;2.60;99.90
31207;DHT22;17834;52.992;8.856;2024-01-30T00:27:26;2.60;99.90
31207;DHT22;17834;52.992;8.856;2024-01-30T00:29:51;2.60;99.90
31207;DHT22;17834;52.992;8.856;2024-01-30T00:32:17;2.60;99.90
31207;DHT22;17834;52.992;8.856;2024-01-30T00:34:44;2.60;99.90
31207;DHT22;17834;52.992;8.856;2024-01-30T00:37:10;2.60;99.90
31207;DHT22;17834;52.992;8.856;2024-01-30T00:39:35;2.60;99.90
31207;DHT22;17834;52.992;8.856;2024-01-30T00:42:01;2.60;99.90
31207;DHT22;17834;52.992;8.856;2024-01-30T00:44:26;2.60;99.90
31207;DHT22;17834;52.992;8.856;2024-01-30T00:46:52;2.60;99.90
31207;DHT22;17834;52.992;8.856;2024-01-30T00:49:18;2.60;99.90
31207;DHT22;17834;52.992;8.856;2024-01-30T00:51:43;2.60;99.90
31207;DHT22;17834;52.992;8.856;2024-01-30T00:54:08;2.50;99.90
31207;DHT22;17834;52.992;8.856;2024-01-30T00:56:34;2.50;99.90
31207;DHT22;17834;52.992;8.856;2024-01-30T00:59:00;2.50;99.90
31207;DHT22;17834;52.992;8.856;2024-01-30T01:01:25;2.50;99.90
31207;DHT22;17834;52.992;8.856;2024-01-30T01:03:51;2.60;99.90
31207;DHT22;17834;52.992;8.856;2024-01-30T01:06:16;2.50;99.90
31207;DHT22;17834;52.992;8.856;2024-01-30T01:08:41;2.60;99.90
31207;DHT22;17834;52.992;8.856;2024-01-30T01:11:07;2.60;99.90
31207;DHT22;17834;52.992;8.856;2024-01-30T01:13:32;2.60;99.90
31207;DHT22;17834;52.992;8.856;2024-01-30T01:15:58;2.60;99.90
31207;DHT22;17834;52.992;8.856;2024-01-30T01:18:23;2.70;99.90
31207;DHT22;17834;52.992;8.856;2024-01-30T01:20:49;2.70;99.90
31207;DHT22;17834;52.992;8.856;2024-01-30T01:23:14;2.80;99.90
31207;DHT22;17834;52.992;8.856;2024-01-30T01:25:40;2.80;99.90
31207;DHT22;17834;52.992;8.856;2024-01-30T01:28:05;2.80;99.90
31207;DHT22;17834;52.992;8.856;2024-01-30T01:30:31;2.90;99.90
31207;DHT22;17834;52.992;8.856;2024-01-30T01:32:56;2.90;99.90
31207;DHT22;17834;52.992;8.856;2024-01-30T01:35:25;2.90;99.90
31207;DHT22;17834;52.992;8.856;2024-01-30T01:37:52;3.00;99.90
31207;DHT22;17834;52.992;8.856;2024-01-30T01:40:23;3.00;99.90
31207;DHT22;17834;52.992;8.856;2024-01-30T01:42:50;3.00;99.90
31207;DHT22;17834;52.992;8.856;2024-01-30T01:45:16;3.10;99.90
31207;DHT22;17834;52.992;8.856;2024-01-30T01:47:42;3.10;99.90
31207;DHT22;17834;52.992;8.856;2024-01-30T01:50:08;3.20;99.90
31207;DHT22;17834;52.992;8.856;2024-01-30T01:52:34;3.20;99.90
31207;DHT22;17834;52.992;8.856;2024-01-30T01:54:59;3.20;99.90
31207;DHT22;17834;52.992;8.856;2024-01-30T01:57:25;3.20;99.90
31207;DHT22;17834;52.992;8.856;2024-01-30T01:59:51;3.20;99.90
31207;DHT22;17834;52.992;8.856;2024-01-30T02:02:17;3.20;99.90
31207;DHT22;17834;52.992;8.856;2024-01-30T02:04:45;3.20;99.90
31207;DHT22;17834;52.992;8.856;2024-01-30T02:07:10;3.10;99.90
31207;DHT22;17834;52.992;8.856;2024-01-30T02:09:36;3.10;99.90
31207;DHT22;17834;52.992;8.856;2024-01-30T02:12:01;3.20;99.90
31207;DHT22;17834;52.992;8.856;2024-01-30T02:14:27;3.10;99.90
31207;DHT22;17834;52.992;8.856;2024-01-30T02:16:52;3.10;99.90
31207;DHT22;17834;52.992;8.856;2024-01-30T02:19:18;3.10;99.90
31207;DHT22;17834;52.992;8.856;2024-01-30T02:21:45;3.10;99.90
31207;DHT22;17834;52.992;8.856;2024-01-30T02:24:11;3.10;99.90
31207;DHT22;17834;52.992;8.856;2024-01-30T02:26:36;3.10;99.90
31207;DHT22;17834;52.992;8.856;2024-01-30T02:29:02;3.00;99.90
31207;DHT22;17834;52.992;8.856;2024-01-30T02:31:27;3.00;99.90
31207;DHT22;17834;52.992;8.856;2024-01-30T02:33:53;2.90;99.90
31207;DHT22;17834;52.992;8.856;2024-01-30T02:36:18;2.90;99.90
31207;DHT22;17834;52.992;8.856;2024-01-30T02:38:44;2.90;99.90
31207;DHT22;17834;52.992;8.856;2024-01-30T02:41:11;2.90;99.90
31207;DHT22;17834;52.992;8.856;2024-01-30T02:43:37;2.80;99.90
31207;DHT22;17834;52.992;8.856;2024-01-30T02:46:02;2.80;99.90
31207;DHT22;17834;52.992;8.856;2024-01-30T02:48:28;2.80;99.90
31207;DHT22;17834;52.992;8.856;2024-01-30T02:50:53;2.80;99.90
31207;DHT22;17834;52.992;8.856;2024-01-30T02:53:19;2.80;99.90
31207;DHT22;17834;52.992;8.856;2024-01-30T02:55:44;2.70;99.90
31207;DHT22;17834;52.992;8.856;2024-01-30T02:58:10;2.70;99.90
31207;DHT22;17834;52.992;8.856;2024-01-30T03:00:35;2.70;99.90
31207;DHT22;17834;52.992;8.856;2024-01-30T03:03:01;2.70;99.90
31207;DHT22;17834;52.992;8.856;2024-01-30T03:05:27;2.60;99.90
31207;DHT22;17834;52.992;8.856;2024-01-30T03:07:52;2.70;99.90
31207;DHT22;17834;52.992;8.856;2024-01-30T03:10:18;2.70;99.90
31207;DHT22;17834;52.992;8.856;2024-01-30T03:12:44;2.70;99.90
31207;DHT22;17834;52.992;8.856;2024-01-30T03:15:09;2.60;99.90
31207;DHT22;17834;52.992;8.856;2024-01-30T03:17:35;2.60;99.90
31207;DHT22;17834;52.992;8.856;2024-01-30T03:20:02;2.60;99.90
31207;DHT22;17834;52.992;8.856;2024-01-30T03:22:29;2.60;99.90
31207;DHT22;17834;52.992;8.856;2024-01-30T03:24:54;2.60;99.90
31207;DHT22;17834;52.992;8.856;2024-01-30T03:27:19;2.60;99.90
31207;DHT22;17834;52.992;8.856;2024-01-30T03:29:45;2.60;99.90
31207;DHT22;17834;52.992;8.856;2024-01-30T03:32:10;2.50;99.90
31207;DHT22;17834;52.992;8.856;2024-01-30T03:34:36;2.50;99.90
31207;DHT22;17834;52.992;8.856;2024-01-30T03:37:02;2.50;99.90
31207;DHT22;17834;52.992;8.856;2024-01-30T03:39:27;2.50;99.90
31207;DHT22;17834;52.992;8.856;2024-01-30T03:41:53;2.50;99.90
31207;DHT22;17834;52.992;8.856;2024-01-30T03:44:18;2.60;99.90
31207;DHT22;17834;52.992;8.856;2024-01-30T03:46:44;2.60;99.90
31207;DHT22;17834;52.992;8.856;2024-01-30T03:49:09;2.60;99.90
31207;DHT22;17834;52.992;8.856;2024-01-30T03:51:35;2.60;99.90
31207;DHT22;17834;52.992;8.856;2024-01-30T03:54:00;2.60;99.90
31207;DHT22;17834;52.992;8.856;2024-01-30T03:56:26;2.60;99.90
31207;DHT22;17834;52.992;8.856;2024-01-30T03:58:51;2.60;99.90
31207;DHT22;17834;52.992;8.856;2024-01-30T04:01:17;2.60;99.90
31207;DHT22;17834;52.992;8.856;2024-01-30T04:03:42;2.60;99.90
31207;DHT22;17834;52.992;8.856;2024-01-30T04:06:09;2.70;99.90
31207;DHT22;17834;52.992;8.856;2024-01-30T04:08:34;2.70;99.90
31207;DHT22;17834;52.992;8.856;2024-01-30T04:11:06;2.80;99.90
31207;DHT22;17834;52.992;8.856;2024-01-30T04:13:33;2.80;99.90
31207;DHT22;17834;52.992;8.856;2024-01-30T04:15:59;2.80;99.90
31207;DHT22;17834;52.992;8.856;2024-01-30T04:18:27;2.90;99.90
31207;DHT22;17834;52.992;8.856;2024-01-30T04:20:52;3.00;99.90
31207;DHT22;17834;52.992;8.856;2024-01-30T04:23:18;3.00;99.90
31207;DHT22;17834;52.992;8.856;2024-01-30T04:25:43;3.00;99.90
31207;DHT22;17834;52.992;8.856;2024-01-30T04:28:10;3.00;99.90
31207;DHT22;17834;52.992;8.856;2024-01-30T04:30:37;3.00;99.90
31207;DHT22;17834;52.992;8.856;2024-01-30T04:33:03;3.10;99.90
31207;DHT22;17834;52.992;8.856;2024-01-30T04:35:29;3.10;99.90
31207;DHT22;17834;52.992;8.856;2024-01-30T04:37:54;3.20;99.90
31207;DHT22;17834;52.992;8.856;2024-01-30T04:40:21;3.30;99.90
31207;DHT22;17834;52.992;8.856;2024-01-30T04:42:46;3.40;99.90
31207;DHT22;17834;52.992;8.856;2024-01-30T04:45:12;3.50;99.90
31207;DHT22;17834;52.992;8.856;2024-01-30T04:47:38;3.50;99.90
31207;DHT22;17834;52.992;8.856;2024-01-30T04:50:06;3.60;99.90
31207;DHT22;17834;52.992;8.856;2024-01-30T04:52:31;3.60;99.90
31207;DHT22;17834;52.992;8.856;2024-01-30T04:54:57;3.70;99.90
31207;DHT22;17834;52.992;8.856;2024-01-30T04:57:22;3.70;99.90
31207;DHT22;17834;52.992;8.856;2024-01-30T04:59:48;3.80;99.90
31207;DHT22;17834;52.992;8.856;2024-01-30T05:02:13;3.80;99.90
31207;DHT22;17834;52.992;8.856;2024-01-30T05:04:40;3.90;99.90
31207;DHT22;17834;52.992;8.856;2024-01-30T05:07:06;3.80;99.90
31207;DHT22;17834;52.992;8.856;2024-01-30T05:09:31;3.80;99.90
31207;DHT22;17834;52.992;8.856;2024-01-30T05:11:57;3.80;99.90
31207;DHT22;17834;52.992;8.856;2024-01-30T05:14:23;3.70;99.90
31207;DHT22;17834;52.992;8.856;2024-01-30T05:16:49;3.70;99.90
31207;DHT22;17834;52.992;8.856;2024-01-30T05:19:14;3.60;99.90
31207;DHT22;17834;52.992;8.856;2024-01-30T05:21:40;3.60;99.90
31207;DHT22;17834;52.992;8.856;2024-01-30T05:24:06;3.50;99.90
31207;DHT22;17834;52.992;8.856;2024-01-30T05:26:32;3.50;99.90
31207;DHT22;17834;52.992;8.856;2024-01-30T05:28:57;3.50;99.90
31207;DHT22;17834;52.992;8.856;2024-01-30T05:31:23;3.50;99.90
31207;DHT22;17834;52.992;8.856;2024-01-30T05:33:48;3.40;99.90
31207;DHT22;17834;52.992;8.856;2024-01-30T05:36:14;3.50;99.90
31207;DHT22;17834;52.992;8.856;2024-01-30T05:38:40;3.50;99.90
31207;DHT22;17834;52.992;8.856;2024-01-30T05:41:05;3.60;99.90
31207;DHT22;17834;52.992;8.856;2024-01-30T05:43:31;3.60;99.90
31207;DHT22;17834;52.992;8.856;2024-01-30T05:45:56;3.60;99.90
31207;DHT22;17834;52.992;8.856;2024-01-30T05:48:22;3.60;99.90
31207;DHT22;17834;52.992;8.856;2024-01-30T05:50:47;3.60;99.90
31207;DHT22;17834;52.992;8.856;2024-01-30T05:53:13;3.70;99.90
31207;DHT22;17834;52.992;8.856;2024-01-30T05:55:38;3.70;99.90
31207;DHT22;17834;52.992;8.856;2024-01-30T05:58:04;3.70;99.90
31207;DHT22;17834;52.992;8.856;2024-01-30T06:00:29;3.80;99.90
31207;DHT22;17834;52.992;8.856;2024-01-30T06:02:55;3.80;99.90
31207;DHT22;17834;52.992;8.856;2024-01-30T06:05:20;3.90;99.90
31207;DHT22;17834;52.992;8.856;2024-01-30T06:07:46;3.90;99.90
31207;DHT22;17834;52.992;8.856;2024-01-30T06:10:11;4.00;99.90
31207;DHT22;17834;52.992;8.856;2024-01-30T06:12:38;4.00;99.90
31207;DHT22;17834;52.992;8.856;2024-01-30T06:15:04;4.00;99.90
31207;DHT22;17834;52.992;8.856;2024-01-30T06:17:29;4.10;99.90
31207;DHT22;17834;52.992;8.856;2024-01-30T06:19:55;4.10;99.90
31207;DHT22;17834;52.992;8.856;2024-01-30T06:22:20;4.10;99.90
31207;DHT22;17834;52.992;8.856;2024-01-30T06:24:46;4.10;99.90
31207;DHT22;17834;52.992;8.856;2024-01-30T06:27:14;4.10;99.90
31207;DHT22;17834;52.992;8.856;2024-01-30T06:29:40;4.10;99.90
31207;DHT22;17834;52.992;8.856;2024-01-30T06:32:06;4.10;99.90
31207;DHT22;17834;52.992;8.856;2024-01-30T06:34:31;4.10;99.90
31207;DHT22;17834;52.992;8.856;2024-01-30T06:36:57;4.10;99.90
31207;DHT22;17834;52.992;8.856;2024-01-30T06:39:22;4.20;99.90
31207;DHT22;17834;52.992;8.856;2024-01-30T06:41:48;4.20;99.90
31207;DHT22;17834;52.992;8.856;2024-01-30T06:44:14;4.20;99.90
31207;DHT22;17834;52.992;8.856;2024-01-30T06:46:40;4.10;99.90
31207;DHT22;17834;52.992;8.856;2024-01-30T06:49:05;4.10;99.90
31207;DHT22;17834;52.992;8.856;2024-01-30T06:51:31;4.10;99.90
31207;DHT22;17834;52.992;8.856;2024-01-30T06:53:56;4.10;99.90
31207;DHT22;17834;52.992;8.856;2024-01-30T06:56:22;4.10;99.90
31207;DHT22;17834;52.992;8.856;2024-01-30T06:58:48;4.00;99.90
31207;DHT22;17834;52.992;8.856;2024-01-30T07:01:14;4.00;99.90
31207;DHT22;17834;52.992;8.856;2024-01-30T07:03:40;4.00;99.90
31207;DHT22;17834;52.992;8.856;2024-01-30T07:06:05;4.00;99.90
31207;DHT22;17834;52.992;8.856;2024-01-30T07:08:31;4.00;99.90
31207;DHT22;17834;52.992;8.856;2024-01-30T07:10:57;4.00;99.90
31207;DHT22;17834;52.992;8.856;2024-01-30T07:13:22;4.00;99.90
31207;DHT22;17834;52.992;8.856;2024-01-30T07:15:48;4.00;99.90
31207;DHT22;17834;52.992;8.856;2024-01-30T07:18:13;4.00;99.90
31207;DHT22;17834;52.992;8.856;2024-01-30T07:20:39;4.00;99.90
31207;DHT22;17834;52.992;8.856;2024-01-30T07:23:14;4.00;99.90
31207;DHT22;17834;52.992;8.856;2024-01-30T07:25:42;4.10;99.90
31207;DHT22;17834;52.992;8.856;2024-01-30T07:28:08;4.10;99.90
31207;DHT22;17834;52.992;8.856;2024-01-30T07:30:37;4.10;99.90
31207;DHT22;17834;52.992;8.856;2024-01-30T07:33:03;4.10;99.90
31207;DHT22;17834;52.992;8.856;2024-01-30T07:35:29;4.10;99.90
31207;DHT22;17834;52.992;8.856;2024-01-30T07:37:54;4.10;99.90
31207;DHT22;17834;52.992;8.856;2024-01-30T07:40:20;4.10;99.90
31207;DHT22;17834;52.992;8.856;2024-01-30T07:42:45;4.20;99.90
31207;DHT22;17834;52.992;8.856;2024-01-30T07:45:11;4.20;99.90
31207;DHT22;17834;52.992;8.856;2024-01-30T07:47:36;4.20;99.90
31207;DHT22;17834;52.992;8.856;2024-01-30T07:50:02;4.20;99.90
31207;DHT22;17834;52.992;8.856;2024-01-30T07:52:27;4.30;99.90
31207;DHT22;17834;52.992;8.856;2024-01-30T07:54:53;4.30;99.90
31207;DHT22;17834;52.992;8.856;2024-01-30T07:57:18;4.40;99.90
31207;DHT22;17834;52.992;8.856;2024-01-30T07:59:44;4.40;99.90
31207;DHT22;17834;52.992;8.856;2024-01-30T08:02:12;4.50;99.90
31207;DHT22;17834;52.992;8.856;2024-01-30T08:04:38;4.60;99.90
31207;DHT22;17834;52.992;8.856;2024-01-30T08:07:03;4.60;99.90
31207;DHT22;17834;52.992;8.856;2024-01-30T08:09:29;4.70;99.90
31207;DHT22;17834;52.992;8.856;2024-01-30T08:11:54;4.80;99.90
31207;DHT22;17834;52.992;8.856;2024-01-30T08:14:20;4.90;99.90
31207;DHT22;17834;52.992;8.856;2024-01-30T08:16:45;5.00;99.90
31207;DHT22;17834;52.992;8.856;2024-01-30T08:19:11;5.00;99.90
31207;DHT22;17834;52.992;8.856;2024-01-30T08:21:37;5.10;99.90
31207;DHT22;17834;52.992;8.856;2024-01-30T08:24:03;5.30;99.90
31207;DHT22;17834;52.992;8.856;2024-01-30T08:26:30;5.30;99.90
31207;DHT22;17834;52.992;8.856;2024-01-30T08:28:55;5.40;99.90
31207;DHT22;17834;52.992;8.856;2024-01-30T08:31:21;5.50;99.90
31207;DHT22;17834;52.992;8.856;2024-01-30T08:33:46;5.50;99.90
31207;DHT22;17834;52.992;8.856;2024-01-30T08:36:12;5.60;99.90
31207;DHT22;17834;52.992;8.856;2024-01-30T08:38:37;5.70;99.90
31207;DHT22;17834;52.992;8.856;2024-01-30T08:41:03;5.70;99.90
31207;DHT22;17834;52.992;8.856;2024-01-30T08:43:28;5.80;99.90
31207;DHT22;17834;52.992;8.856;2024-01-30T08:45:54;5.90;99.90
31207;DHT22;17834;52.992;8.856;2024-01-30T08:48:19;6.00;99.90
31207;DHT22;17834;52.992;8.856;2024-01-30T08:50:45;6.10;99.90
31207;DHT22;17834;52.992;8.856;2024-01-30T08:53:10;6.10;99.90
31207;DHT22;17834;52.992;8.856;2024-01-30T08:55:36;6.20;99.90
31207;DHT22;17834;52.992;8.856;2024-01-30T08:58:01;6.30;99.90
31207;DHT22;17834;52.992;8.856;2024-01-30T09:00:29;6.40;99.90
31207;DHT22;17834;52.992;8.856;2024-01-30T09:02:54;6.50;99.90
31207;DHT22;17834;52.992;8.856;2024-01-30T09:05:20;6.50;99.90
31207;DHT22;17834;52.992;8.856;2024-01-30T09:07:45;6.60;99.90
31207;DHT22;17834;52.992;8.856;2024-01-30T09:10:11;6.70;99.90
31207;DHT22;17834;52.992;8.856;2024-01-30T09:12:36;6.90;99.90
31207;DHT22;17834;52.992;8.856;2024-01-30T09:15:02;7.00;99.90
31207;DHT22;17834;52.992;8.856;2024-01-30T09:17:28;7.10;99.90
31207;DHT22;17834;52.992;8.856;2024-01-30T09:19:54;7.20;99.90
31207;DHT22;17834;52.992;8.856;2024-01-30T09:22:19;7.30;99.90
31207;DHT22;17834;52.992;8.856;2024-01-30T09:24:45;7.40;99.90
31207;DHT22;17834;52.992;8.856;2024-01-30T09:27:10;7.50;99.90
31207;DHT22;17834;52.992;8.856;2024-01-30T09:29:35;7.70;99.90
31207;DHT22;17834;52.992;8.856;2024-01-30T09:32:01;7.80;99.90
31207;DHT22;17834;52.992;8.856;2024-01-30T09:34:27;8.00;99.90
31207;DHT22;17834;52.992;8.856;2024-01-30T09:36:52;8.10;99.90
31207;DHT22;17834;52.992;8.856;2024-01-30T09:39:18;8.20;99.90
31207;DHT22;17834;52.992;8.856;2024-01-30T09:42:03;8.30;99.90
31207;DHT22;17834;52.992;8.856;2024-01-30T09:44:30;8.50;99.90
31207;DHT22;17834;52.992;8.856;2024-01-30T09:46:56;8.60;99.90
31207;DHT22;17834;52.992;8.856;2024-01-30T09:49:31;8.70;99.90
31207;DHT22;17834;52.992;8.856;2024-01-30T09:51:57;8.80;99.90
31207;DHT22;17834;52.992;8.856;2024-01-30T09:54:23;8.90;99.90
31207;DHT22;17834;52.992;8.856;2024-01-30T09:56:48;9.00;99.90
31207;DHT22;17834;52.992;8.856;2024-01-30T09:59:14;9.10;99.90
31207;DHT22;17834;52.992;8.856;2024-01-30T10:01:40;9.20;99.90
31207;DHT22;17834;52.992;8.856;2024-01-30T10:04:07;9.30;99.90
31207;DHT22;17834;52.992;8.856;2024-01-30T10:06:32;9.30;99.90
31207;DHT22;17834;52.992;8.856;2024-01-30T10:08:58;9.40;99.90
31207;DHT22;17834;52.992;8.856;2024-01-30T10:11:23;9.50;99.90
31207;DHT22;17834;52.992;8.856;2024-01-30T10:13:49;9.60;99.90
31207;DHT22;17834;52.992;8.856;2024-01-30T10:16:14;9.70;99.90
31207;DHT22;17834;52.992;8.856;2024-01-30T10:18:42;9.80;99.90
31207;DHT22;17834;52.992;8.856;2024-01-30T10:21:08;9.90;99.90
31207;DHT22;17834;52.992;8.856;2024-01-30T10:23:34;10.00;99.90
31207;DHT22;17834;52.992;8.856;2024-01-30T10:25:59;10.00;99.90
31207;DHT22;17834;52.992;8.856;2024-01-30T10:28:27;10.10;99.90
31207;DHT22;17834;52.992;8.856;2024-01-30T10:31:01;10.10;99.90
31207;DHT22;17834;52.992;8.856;2024-01-30T10:33:31;10.10;99.90
31207;DHT22;17834;52.992;8.856;2024-01-30T10:36:04;10.10;99.90
31207;DHT22;17834;52.992;8.856;2024-01-30T10:38:31;10.20;99.90
31207;DHT22;17834;52.992;8.856;2024-01-30T10:40:58;10.20;99.90
31207;DHT22;17834;52.992;8.856;2024-01-30T10:43:35;10.30;99.90
31207;DHT22;17834;52.992;8.856;2024-01-30T10:46:18;10.30;99.90
31207;DHT22;17834;52.992;8.856;2024-01-30T10:48:44;10.40;99.90
31207;DHT22;17834;52.992;8.856;2024-01-30T10:51:12;10.40;99.90
31207;DHT22;17834;52.992;8.856;2024-01-30T10:53:39;10.50;99.90
31207;DHT22;17834;52.992;8.856;2024-01-30T10:56:05;10.60;99.90
31207;DHT22;17834;52.992;8.856;2024-01-30T10:58:31;10.70;99.90
31207;DHT22;17834;52.992;8.856;2024-01-30T11:00:56;10.80;99.90
31207;DHT22;17834;52.992;8.856;2024-01-30T11:03:23;10.90;99.90
31207;DHT22;17834;52.992;8.856;2024-01-30T11:05:52;11.00;99.90
31207;DHT22;17834;52.992;8.856;2024-01-30T11:08:24;11.20;99.90
31207;DHT22;17834;52.992;8.856;2024-01-30T11:10:55;11.20;99.90
31207;DHT22;17834;52.992;8.856;2024-01-30T11:13:21;11.30;99.90
31207;DHT22;17834;52.992;8.856;2024-01-30T11:15:47;11.40;99.90
31207;DHT22;17834;52.992;8.856;2024-01-30T11:18:23;11.40;99.90
31207;DHT22;17834;52.992;8.856;2024-01-30T11:20:49;11.50;99.90
31207;DHT22;17834;52.992;8.856;2024-01-30T11:23:15;11.50;99.90
31207;DHT22;17834;52.992;8.856;2024-01-30T11:25:43;11.60;99.90
31207;DHT22;17834;52.992;8.856;2024-01-30T11:28:16;11.70;99.90
31207;DHT22;17834;52.992;8.856;2024-01-30T11:30:42;11.60;99.90
31207;DHT22;17834;52.992;8.856;2024-01-30T11:33:09;11.70;99.90
31207;DHT22;17834;52.992;8.856;2024-01-30T11:35:37;11.70;99.90
31207;DHT22;17834;52.992;8.856;2024-01-30T11:38:05;11.70;99.90
31207;DHT22;17834;52.992;8.856;2024-01-30T11:40:31;11.80;99.90
31207;DHT22;17834;52.992;8.856;2024-01-30T11:42:59;11.80;99.90
31207;DHT22;17834;52.992;8.856;2024-01-30T11:45:26;11.80;99.90
31207;DHT22;17834;52.992;8.856;2024-01-30T11:47:52;11.90;99.90
31207;DHT22;17834;52.992;8.856;2024-01-30T11:50:18;11.90;99.90
31207;DHT22;17834;52.992;8.856;2024-01-30T11:52:44;11.90;99.90
31207;DHT22;17834;52.992;8.856;2024-01-30T11:55:10;11.90;99.90
31207;DHT22;17834;52.992;8.856;2024-01-30T11:57:36;11.90;99.90
31207;DHT22;17834;52.992;8.856;2024-01-30T12:00:03;11.80;99.90
31207;DHT22;17834;52.992;8.856;2024-01-30T12:02:35;11.80;99.90
31207;DHT22;17834;52.992;8.856;2024-01-30T12:05:05;11.60;99.90
31207;DHT22;17834;52.992;8.856;2024-01-30T12:07:31;11.50;99.90
31207;DHT22;17834;52.992;8.856;2024-01-30T12:09:57;11.40;99.90
31207;DHT22;17834;52.992;8.856;2024-01-30T12:12:26;11.30;99.90
31207;DHT22;17834;52.992;8.856;2024-01-30T12:14:51;11.30;99.90
31207;DHT22;17834;52.992;8.856;2024-01-30T12:17:31;11.20;99.90
31207;DHT22;17834;52.992;8.856;2024-01-30T12:20:14;11.20;99.90
31207;DHT22;17834;52.992;8.856;2024-01-30T12:22:47;11.10;99.90
31207;DHT22;17834;52.992;8.856;2024-01-30T12:27:42;11.20;99.90
31207;DHT22;17834;52.992;8.856;2024-01-30T12:30:09;11.20;99.90
31207;DHT22;17834;52.992;8.856;2024-01-30T12:32:43;11.30;99.90
31207;DHT22;17834;52.992;8.856;2024-01-30T12:35:13;11.30;99.90
31207;DHT22;17834;52.992;8.856;2024-01-30T12:37:39;11.40;99.90
31207;DHT22;17834;52.992;8.856;2024-01-30T12:40:06;11.40;99.90
31207;DHT22;17834;52.992;8.856;2024-01-30T12:42:32;11.50;99.90
31207;DHT22;17834;52.992;8.856;2024-01-30T12:44:58;11.50;99.90
31207;DHT22;17834;52.992;8.856;2024-01-30T12:47:24;11.60;99.90
31207;DHT22;17834;52.992;8.856;2024-01-30T12:49:50;11.70;99.90
31207;DHT22;17834;52.992;8.856;2024-01-30T12:52:19;11.70;99.90
31207;DHT22;17834;52.992;8.856;2024-01-30T12:54:45;11.70;99.90
31207;DHT22;17834;52.992;8.856;2024-01-30T12:57:10;11.70;99.90
31207;DHT22;17834;52.992;8.856;2024-01-30T12:59:35;11.70;99.90
31207;DHT22;17834;52.992;8.856;2024-01-30T13:02:01;11.70;99.90
31207;DHT22;17834;52.992;8.856;2024-01-30T13:04:28;11.70;99.90
31207;DHT22;17834;52.992;8.856;2024-01-30T13:06:54;11.70;99.90
31207;DHT22;17834;52.992;8.856;2024-01-30T13:09:20;11.70;99.90
31207;DHT22;17834;52.992;8.856;2024-01-30T13:11:45;11.80;99.90
31207;DHT22;17834;52.992;8.856;2024-01-30T13:14:11;11.80;99.90
31207;DHT22;17834;52.992;8.856;2024-01-30T13:16:36;11.80;99.90
31207;DHT22;17834;52.992;8.856;2024-01-30T13:19:02;11.80;99.90
31207;DHT22;17834;52.992;8.856;2024-01-30T13:21:29;11.80;99.90
31207;DHT22;17834;52.992;8.856;2024-01-30T13:23:55;11.80;99.90
31207;DHT22;17834;52.992;8.856;2024-01-30T13:26:21;11.80;99.90
31207;DHT22;17834;52.992;8.856;2024-01-30T13:28:46;11.80;99.90
31207;DHT22;17834;52.992;8.856;2024-01-30T13:31:13;11.80;99.90
31207;DHT22;17834;52.992;8.856;2024-01-30T13:33:39;11.80;99.90
31207;DHT22;17834;52.992;8.856;2024-01-30T13:36:04;11.70;99.90
31207;DHT22;17834;52.992;8.856;2024-01-30T13:38:30;11.70;99.90
31207;DHT22;17834;52.992;8.856;2024-01-30T13:40:56;11.70;99.90
31207;DHT22;17834;52.992;8.856;2024-01-30T13:43:21;11.70;99.90
31207;DHT22;17834;52.992;8.856;2024-01-30T13:45:47;11.70;99.90
31207;DHT22;17834;52.992;8.856;2024-01-30T13:48:13;11.70;99.90
31207;DHT22;17834;52.992;8.856;2024-01-30T13:50:38;11.70;99.90
31207;DHT22;17834;52.992;8.856;2024-01-30T13:53:04;11.60;99.90
31207;DHT22;17834;52.992;8.856;2024-01-30T13:55:32;11.60;99.90
31207;DHT22;17834;52.992;8.856;2024-01-30T13:57:58;11.60;99.90
31207;DHT22;17834;52.992;8.856;2024-01-30T14:00:23;11.60;99.90
31207;DHT22;17834;52.992;8.856;2024-01-30T14:02:50;11.60;99.90
31207;DHT22;17834;52.992;8.856;2024-01-30T14:05:16;11.60;99.90
31207;DHT22;17834;52.992;8.856;2024-01-30T14:07:43;11.60;99.90
31207;DHT22;17834;52.992;8.856;2024-01-30T14:10:09;11.60;99.90
31207;DHT22;17834;52.992;8.856;2024-01-30T14:12:36;11.70;99.90
31207;DHT22;17834;52.992;8.856;2024-01-30T14:15:02;11.60;99.90
31207;DHT22;17834;52.992;8.856;2024-01-30T14:17:27;11.60;99.90
31207;DHT22;17834;52.992;8.856;2024-01-30T14:19:53;11.60;99.90
31207;DHT22;17834;52.992;8.856;2024-01-30T14:22:18;11.60;99.90
31207;DHT22;17834;52.992;8.856;2024-01-30T14:24:44;11.70;99.90
31207;DHT22;17834;52.992;8.856;2024-01-30T14:27:10;11.70;99.90
31207;DHT22;17834;52.992;8.856;2024-01-30T14:29:35;11.70;99.90
31207;DHT22;17834;52.992;8.856;2024-01-30T14:32:01;11.80;99.90
31207;DHT22;17834;52.992;8.856;2024-01-30T14:34:27;11.80;99.90
31207;DHT22;17834;52.992;8.856;2024-01-30T14:36:52;11.80;99.90
31207;DHT22;17834;52.992;8.856;2024-01-30T14:39:18;11.90;99.90
31207;DHT22;17834;52.992;8.856;2024-01-30T14:41:44;11.80;99.90
31207;DHT22;17834;52.992;8.856;2024-01-30T14:44:09;11.90;99.90
31207;DHT22;17834;52.992;8.856;2024-01-30T14:46:36;11.90;99.90
31207;DHT22;17834;52.992;8.856;2024-01-30T14:49:02;11.90;99.90
31207;DHT22;17834;52.992;8.856;2024-01-30T14:51:31;11.90;99.90
31207;DHT22;17834;52.992;8.856;2024-01-30T14:53:56;11.80;99.90
31207;DHT22;17834;52.992;8.856;2024-01-30T14:56:22;11.70;99.90
31207;DHT22;17834;52.992;8.856;2024-01-30T14:58:48;11.60;99.90
31207;DHT22;17834;52.992;8.856;2024-01-30T15:01:14;11.50;99.90
31207;DHT22;17834;52.992;8.856;2024-01-30T15:03:39;11.30;99.90
31207;DHT22;17834;52.992;8.856;2024-01-30T15:06:05;11.30;99.90
31207;DHT22;17834;52.992;8.856;2024-01-30T15:08:31;11.10;99.90
31207;DHT22;17834;52.992;8.856;2024-01-30T15:10:58;11.00;99.90
31207;DHT22;17834;52.992;8.856;2024-01-30T15:13:24;10.90;99.90
31207;DHT22;17834;52.992;8.856;2024-01-30T15:15:49;10.90;99.90
31207;DHT22;17834;52.992;8.856;2024-01-30T15:18:15;10.90;99.90
31207;DHT22;17834;52.992;8.856;2024-01-30T15:20:41;10.80;99.90
31207;DHT22;17834;52.992;8.856;2024-01-30T15:23:06;10.80;99.90
31207;DHT22;17834;52.992;8.856;2024-01-30T15:25:32;10.70;99.90
31207;DHT22;17834;52.992;8.856;2024-01-30T15:27:57;10.80;99.90
31207;DHT22;17834;52.992;8.856;2024-01-30T15:30:23;10.80;99.90
31207;DHT22;17834;52.992;8.856;2024-01-30T15:32:48;10.80;99.90
31207;DHT22;17834;52.992;8.856;2024-01-30T15:35:14;10.80;99.90